Time;durP1;ratioP1;P1;durP2;ratioP2;P2;SDS_P1;SDS_P2;PMS_P1;PMS_P2;Temp;Humidity;BMP_temperature;BMP_pressure;BME280_temperature;BME280_humidity;BME280_pressure;Samples;Min_cycle;Max_cycle;Signal;HPM_P1;HPM_P2
2021/10/08 00:01:27;;;;;;;21.40;11.02;;;;;;;6.70;63.71;101950.25;5011697;28;20080;-54
2021/10/08 00:03:54;;;;;;;20.88;10.55;;;;;;;6.75;63.21;101953.81;5012035;28;20037;-53
2021/10/08 00:06:20;;;;;;;19.25;11.23;;;;;;;6.76;63.20;101952.94;5011429;28;20056;-50
2021/10/08 00:08:46;;;;;;;24.05;11.05;;;;;;;6.72;63.08;101962.38;5011334;28;20068;-52
2021/10/08 00:11:11;;;;;;;22.50;11.05;;;;;;;6.68;63.12;101954.53;5030612;28;20065;-54
2021/10/08 00:13:38;;;;;;;20.98;11.38;;;;;;;6.66;62.90;101953.63;5011703;28;20062;-53
2021/10/08 00:16:05;;;;;;;18.90;10.70;;;;;;;6.57;62.68;101949.16;5011248;28;20052;-51
2021/10/08 00:18:32;;;;;;;19.63;10.68;;;;;;;6.43;62.66;101942.00;5030220;28;20069;-52
2021/10/08 00:20:59;;;;;;;22.60;10.88;;;;;;;6.48;62.24;101964.50;5031226;28;20041;-49
2021/10/08 00:23:24;;;;;;;28.48;11.80;;;;;;;6.49;62.95;101962.81;5029846;28;20501;-51
2021/10/08 00:25:50;;;;;;;21.77;11.45;;;;;;;6.42;62.77;101966.97;5030933;28;20044;-53
2021/10/08 00:28:16;;;;;;;19.27;10.40;;;;;;;6.36;63.15;101966.84;5006164;28;20157;-51
2021/10/08 00:30:42;;;;;;;23.45;11.88;;;;;;;6.34;63.32;101964.22;5011122;28;20045;-53
2021/10/08 00:33:07;;;;;;;24.25;11.35;;;;;;;6.30;63.56;101954.69;5010216;28;20402;-53
2021/10/08 00:35:34;;;;;;;24.55;11.98;;;;;;;6.43;63.57;101976.47;5009821;28;20058;-53
2021/10/08 00:38:03;;;;;;;23.70;11.70;;;;;;;6.40;64.09;101976.41;5039337;28;20068;-51
2021/10/08 00:40:29;;;;;;;22.10;12.10;;;;;;;6.33;64.34;101971.97;5029544;28;20505;-53
2021/10/08 00:42:55;;;;;;;20.23;11.27;;;;;;;6.30;64.25;101957.28;5012897;28;20077;-53
2021/10/08 00:45:21;;;;;;;21.67;12.07;;;;;;;6.42;64.38;101971.28;5009656;28;20136;-50
2021/10/08 00:48:01;;;;;;;25.63;11.82;;;;;;;6.42;64.66;101966.09;4984259;28;1216189;-49
2021/10/08 00:50:27;;;;;;;23.48;11.93;;;;;;;6.33;64.72;101959.06;5029510;28;20064;-51
2021/10/08 00:52:54;;;;;;;21.90;11.50;;;;;;;6.37;64.72;101969.47;5030583;28;20475;-48
2021/10/08 00:55:19;;;;;;;26.20;12.07;;;;;;;6.36;65.04;101967.72;5031153;28;20045;-49
2021/10/08 00:57:46;;;;;;;21.33;11.65;;;;;;;6.37;65.15;101969.47;5036235;28;20044;-49
2021/10/08 01:00:17;;;;;;;27.33;12.60;;;;;;;6.36;64.98;101967.72;5036651;28;20065;-50
2021/10/08 01:02:42;;;;;;;22.15;11.82;;;;;;;6.31;65.56;101966.78;5020235;28;20449;-51
2021/10/08 01:05:09;;;;;;;21.05;11.80;;;;;;;6.31;65.75;101969.34;5027613;28;20049;-51
2021/10/08 01:07:34;;;;;;;24.63;12.55;;;;;;;6.27;66.26;101970.13;5015350;28;20030;-48
2021/10/08 01:10:01;;;;;;;21.88;11.90;;;;;;;6.27;65.91;101970.13;5026526;28;20049;-51
2021/10/08 01:12:28;;;;;;;21.58;11.98;;;;;;;6.28;65.89;101971.00;5027750;28;20103;-50
2021/10/08 01:14:54;;;;;;;28.02;12.30;;;;;;;6.25;65.84;101976.09;5037578;28;20041;-52
2021/10/08 01:17:20;;;;;;;28.02;12.05;;;;;;;6.26;66.16;101972.69;5045456;28;20084;-49
2021/10/08 01:19:52;;;;;;;27.20;13.60;;;;;;;6.12;65.91;101962.09;5062830;28;20572;-49
2021/10/08 01:22:18;;;;;;;26.25;13.90;;;;;;;6.19;66.12;101978.56;5020787;28;20045;-52
2021/10/08 01:24:48;;;;;;;26.48;12.93;;;;;;;6.14;65.95;101972.44;5023101;28;20043;-52
2021/10/08 01:27:17;;;;;;;29.08;13.18;;;;;;;6.20;66.21;101976.00;5021588;28;20118;-52
2021/10/08 01:29:50;;;;;;;26.73;13.80;;;;;;;6.18;66.89;101964.75;5010905;28;20541;-52
2021/10/08 01:32:19;;;;;;;29.92;14.65;;;;;;;6.20;66.90;101973.44;5054977;28;20045;-50
2021/10/08 01:34:46;;;;;;;30.58;13.85;;;;;;;6.17;66.21;101978.53;5029378;28;20536;-49
2021/10/08 01:37:14;;;;;;;33.00;15.05;;;;;;;6.19;66.75;101979.44;5030293;28;20041;-52
2021/10/08 01:39:40;;;;;;;29.73;14.73;;;;;;;6.20;66.24;101972.56;5034370;28;20094;-55
2021/10/08 01:42:08;;;;;;;26.83;13.73;;;;;;;6.21;66.26;101970.00;5025514;28;20527;-51
2021/10/08 01:44:34;;;;;;;31.35;14.15;;;;;;;6.17;66.10;101973.38;5011296;28;20037;-54
2021/10/08 01:47:00;;;;;;;30.52;14.00;;;;;;;6.14;66.45;101972.44;5004407;28;20037;-58
2021/10/08 01:49:30;;;;;;;;;;;;;;;6.09;66.52;101974.91;5029484;28;20535;-55
2021/10/08 01:51:57;;;;;;;32.33;13.80;;;;;;;6.01;66.19;101955.84;5035570;28;19917;-52
2021/10/08 01:54:23;;;;;;;31.58;15.50;;;;;;;5.94;66.65;101962.56;5042874;28;20056;-49
2021/10/08 01:56:49;;;;;;;31.55;15.00;;;;;;;5.89;66.22;101963.31;5030072;28;20528;-53
2021/10/08 01:59:15;;;;;;;28.25;13.80;;;;;;;5.84;66.67;101959.72;5036518;28;20041;-52
2021/10/08 02:01:41;;;;;;;32.80;13.65;;;;;;;5.82;66.34;101962.25;5035601;28;20040;-51
2021/10/08 02:04:14;;;;;;;28.73;13.90;;;;;;;5.77;66.29;101957.84;5010043;28;20530;-53
2021/10/08 02:06:40;;;;;;;27.77;13.90;;;;;;;5.78;65.82;101962.16;5027764;28;20128;-53
2021/10/08 02:09:06;;;;;;;26.17;13.40;;;;;;;5.71;66.37;101953.41;5028361;28;20106;-53
2021/10/08 02:11:35;;;;;;;26.60;13.85;;;;;;;5.73;66.58;101959.50;5045626;28;20057;-50
2021/10/08 02:14:02;;;;;;;30.92;14.63;;;;;;;5.66;66.02;101961.91;5023883;28;20056;-52
2021/10/08 02:16:28;;;;;;;31.45;13.93;;;;;;;5.62;66.60;101962.66;5008911;28;20042;-49
2021/10/08 02:19:00;;;;;;;33.15;14.38;;;;;;;5.60;66.09;101964.38;5025480;28;20053;-49
2021/10/08 02:21:28;;;;;;;31.05;15.32;;;;;;;5.48;66.41;101942.59;5028788;28;20041;-49
2021/10/08 02:23:55;;;;;;;32.55;14.30;;;;;;;5.63;66.44;101959.25;5009050;28;20049;-51
2021/10/08 02:26:21;;;;;;;27.88;13.45;;;;;;;5.60;66.23;101967.78;5008837;28;20422;-49
2021/10/08 02:28:47;;;;;;;34.33;14.43;;;;;;;5.54;66.33;101960.81;5025247;28;20123;-52
2021/10/08 02:31:14;;;;;;;25.90;13.00;;;;;;;5.56;66.69;101955.66;5038187;28;20045;-53
2021/10/08 02:33:41;;;;;;;31.20;14.38;;;;;;;5.56;66.78;101955.66;5012200;28;20041;-53
2021/10/08 02:36:08;;;;;;;27.25;13.85;;;;;;;5.55;66.76;101959.06;5029888;28;20136;-53
2021/10/08 02:38:35;;;;;;;24.42;13.63;;;;;;;5.54;66.36;101955.66;5028737;28;20041;-50
2021/10/08 02:41:01;;;;;;;32.00;15.50;;;;;;;5.60;66.61;101952.31;4998986;28;20130;-54
2021/10/08 02:43:27;;;;;;;35.28;14.73;;;;;;;5.55;66.93;101941.88;4997783;28;20048;-48
2021/10/08 02:45:54;;;;;;;35.45;15.50;;;;;;;5.66;67.31;101949.88;5015818;28;20072;-53
2021/10/08 02:48:20;;;;;;;30.35;14.63;;;;;;;5.60;66.98;101947.16;5024464;28;20061;-51
2021/10/08 02:50:46;;;;;;;32.17;15.48;;;;;;;5.59;67.55;101954.88;5008668;28;20049;-51
2021/10/08 02:53:12;;;;;;;31.88;15.95;;;;;;;5.61;67.74;101954.06;5048288;28;20103;-54
2021/10/08 02:55:39;;;;;;;29.35;14.60;;;;;;;5.63;67.19;101957.56;5036629;28;20053;-52
2021/10/08 02:58:05;;;;;;;29.10;13.80;;;;;;;5.62;67.20;101954.94;5028548;28;20050;-51
2021/10/08 03:00:31;;;;;;;30.05;15.38;;;;;;;5.60;67.29;101952.31;5014307;28;20055;-53
2021/10/08 03:02:57;;;;;;;33.33;14.55;;;;;;;5.62;67.73;101954.94;5031705;28;20498;-53
2021/10/08 03:05:23;;;;;;;30.50;14.32;;;;;;;5.60;66.98;101949.72;5038572;28;20111;-49
2021/10/08 03:07:49;;;;;;;26.27;13.38;;;;;;;5.59;67.56;101952.28;5020313;28;20608;-51
2021/10/08 03:10:19;;;;;;;31.15;14.50;;;;;;;5.55;67.19;101953.91;4996267;28;20038;-49
2021/10/08 03:12:47;;;;;;;29.77;15.68;;;;;;;5.46;67.01;101961.44;5025041;28;20544;-51
2021/10/08 03:15:13;;;;;;;32.30;16.80;;;;;;;5.42;67.30;101962.22;5024773;28;20046;-49
2021/10/08 03:17:42;;;;;;;36.00;15.80;;;;;;;5.44;66.69;101973.47;5057875;28;20068;-50
2021/10/08 03:20:08;;;;;;;34.08;14.73;;;;;;;5.45;66.94;101968.31;5040583;28;20041;-51
2021/10/08 03:22:34;;;;;;;35.72;14.57;;;;;;;5.38;67.46;101955.25;5045496;28;20128;-52
2021/10/08 03:25:01;;;;;;;28.95;14.73;;;;;;;5.44;67.45;101966.56;5031590;28;20856;-50
2021/10/08 03:27:27;;;;;;;33.50;15.35;;;;;;;5.34;67.99;101949.13;5000948;28;20041;-52
2021/10/08 03:29:53;;;;;;;32.63;15.27;;;;;;;5.34;67.69;101963.78;5027762;28;20614;-49
2021/10/08 03:32:19;;;;;;;32.08;14.85;;;;;;;5.37;67.82;101969.00;5028255;28;20042;-50
2021/10/08 03:34:45;;;;;;;31.35;14.52;;;;;;;5.35;67.58;101962.91;5043454;28;20032;-53
2021/10/08 03:37:16;;;;;;;30.80;14.60;;;;;;;5.37;67.71;101972.44;5029700;28;20040;-52
2021/10/08 03:39:45;;;;;;;32.88;14.95;;;;;;;5.37;67.61;101962.13;5021610;28;20079;-51
2021/10/08 03:42:13;;;;;;;28.63;14.32;;;;;;;5.42;67.30;101975.13;5046620;28;20417;-52
2021/10/08 03:44:39;;;;;;;33.30;15.07;;;;;;;5.45;67.53;101976.06;5040434;28;20041;-50
2021/10/08 03:47:14;;;;;;;28.70;14.02;;;;;;;5.45;67.91;101975.19;5034995;28;20060;-50
2021/10/08 03:49:41;;;;;;;32.20;15.60;;;;;;;5.43;67.48;101976.88;5018736;28;20053;-51
2021/10/08 03:52:09;;;;;;;31.73;15.63;;;;;;;5.45;68.10;101976.06;5031869;28;20053;-53
2021/10/08 03:54:36;;;;;;;33.38;15.25;;;;;;;5.47;68.17;101976.09;5052011;28;20033;-52
2021/10/08 03:57:03;;;;;;;30.27;15.68;;;;;;;5.47;67.89;101976.09;5051265;28;20115;-53
2021/10/08 03:59:28;;;;;;;31.85;15.55;;;;;;;5.47;67.98;101982.13;5035983;28;20123;-54
2021/10/08 04:01:57;;;;;;;30.13;15.75;;;;;;;5.45;68.45;101976.06;5043010;28;20474;-49
2021/10/08 04:04:25;;;;;;;31.42;15.77;;;;;;;5.46;67.87;101976.94;5030517;28;20536;-50
2021/10/08 04:06:51;;;;;;;111.35;20.98;;;;;;;5.48;67.99;101976.16;5014531;28;20069;-51
2021/10/08 04:09:18;;;;;;;34.35;15.75;;;;;;;5.41;67.83;101961.34;5047317;28;20057;-50
2021/10/08 04:11:46;;;;;;;50.35;17.77;;;;;;;5.52;68.45;101979.66;5029567;28;20136;-51
2021/10/08 04:14:13;;;;;;;41.08;17.08;;;;;;;5.53;68.26;101977.13;5013918;28;20053;-54
2021/10/08 04:16:39;;;;;;;38.92;15.93;;;;;;;5.56;68.26;101984.03;5031093;28;20037;-52
2021/10/08 04:19:06;;;;;;;43.25;18.02;;;;;;;5.56;67.98;101976.31;5031053;28;20476;-52
2021/10/08 04:21:33;;;;;;;36.95;16.55;;;;;;;5.57;68.29;101979.75;5029739;28;20145;-53
2021/10/08 04:24:00;;;;;;;32.00;15.75;;;;;;;5.64;67.84;101979.06;5056591;28;20068;-52
2021/10/08 04:26:27;;;;;;;35.40;15.65;;;;;;;5.66;67.68;101979.97;5057834;28;20505;-52
2021/10/08 04:28:54;;;;;;;36.78;16.27;;;;;;;5.62;67.60;101968.72;5014152;28;20041;-50
2021/10/08 04:31:22;;;;;;;35.63;15.82;;;;;;;5.73;67.29;101984.44;5029946;28;20045;-52
2021/10/08 04:33:48;;;;;;;35.70;16.23;;;;;;;5.71;67.18;101984.38;5025134;28;20080;-50
2021/10/08 04:36:14;;;;;;;46.30;17.58;;;;;;;5.66;66.88;101985.13;5030110;28;20064;-49
2021/10/08 04:38:40;;;;;;;38.97;18.20;;;;;;;5.54;66.58;101990.91;5012521;28;20123;-53
2021/10/08 04:41:09;;;;;;;40.08;18.30;;;;;;;5.49;66.66;101984.75;5029551;28;20084;-51
2021/10/08 04:43:37;;;;;;;46.55;17.95;;;;;;;5.41;67.01;101987.16;5029515;28;20564;-50
2021/10/08 04:46:03;;;;;;;46.15;18.40;;;;;;;5.33;67.33;101986.09;5013605;28;20041;-50
2021/10/08 04:48:31;;;;;;;40.80;17.88;;;;;;;5.32;67.33;101986.94;5016911;28;20393;-53
2021/10/08 04:50:57;;;;;;;45.67;19.40;;;;;;;5.39;67.38;101982.81;5029344;28;20052;-55
2021/10/08 04:53:24;;;;;;;44.25;18.98;;;;;;;5.46;66.96;101977.81;5035469;28;20513;-50
2021/10/08 04:55:52;;;;;;;54.67;18.60;;;;;;;5.50;66.51;101981.31;5013479;28;20056;-53
2021/10/08 04:58:19;;;;;;;42.45;19.48;;;;;;;5.48;66.97;101983.00;5033742;28;20501;-48
2021/10/08 05:00:48;;;;;;;54.70;21.55;;;;;;;5.54;67.04;101988.31;5037873;28;20134;-47
2021/10/08 05:03:16;;;;;;;44.08;19.98;;;;;;;5.58;66.58;101984.97;5026738;28;20148;-53
2021/10/08 05:05:50;;;;;;;46.03;18.60;;;;;;;5.71;66.69;101980.94;5009368;28;20057;-53
2021/10/08 05:08:19;;;;;;;39.60;19.95;;;;;;;5.77;66.07;101976.78;5009539;28;20048;-55
2021/10/08 05:10:46;;;;;;;39.65;19.02;;;;;;;5.95;65.65;101982.41;5008738;28;20059;-51
2021/10/08 05:13:13;;;;;;;49.53;20.20;;;;;;;6.02;65.14;101982.53;5041321;28;20079;-46
2021/10/08 05:15:41;;;;;;;40.10;19.52;;;;;;;6.06;65.50;101990.38;5002794;28;20532;-51
2021/10/08 05:18:08;;;;;;;44.78;17.83;;;;;;;6.20;65.07;101993.22;4995711;28;20127;-54
2021/10/08 05:20:34;;;;;;;36.17;17.50;;;;;;;6.43;64.38;101991.09;5028626;28;20092;-55
2021/10/08 05:23:00;;;;;;;34.35;17.95;;;;;;;6.69;63.02;101989.88;5013399;28;20107;-54
2021/10/08 05:25:26;;;;;;;39.30;18.50;;;;;;;7.01;62.29;101983.56;5047784;28;20487;-57
2021/10/08 05:27:52;;;;;;;39.95;18.88;;;;;;;7.92;60.44;101984.94;5031295;28;20037;-58
2021/10/08 05:30:18;;;;;;;49.33;20.85;;;;;;;8.92;57.49;101999.09;5039959;28;20048;-55
2021/10/08 05:32:44;;;;;;;43.90;21.58;;;;;;;9.83;55.13;101990.25;5008432;28;20050;-53
2021/10/08 05:35:11;;;;;;;44.78;20.65;;;;;;;10.47;52.44;101997.50;5025157;28;20037;-55
2021/10/08 05:37:37;;;;;;;45.50;21.52;;;;;;;11.11;51.00;101989.78;5025616;28;20049;-56
2021/10/08 05:40:05;;;;;;;41.72;19.73;;;;;;;12.02;48.34;102000.13;5025820;28;20041;-57
2021/10/08 05:42:31;;;;;;;37.78;18.05;;;;;;;12.70;46.18;101993.72;5043726;28;20037;-58
2021/10/08 05:44:59;;;;;;;32.65;15.65;;;;;;;12.99;43.58;101985.66;5017263;28;20049;-57
2021/10/08 05:47:25;;;;;;;35.97;18.20;;;;;;;13.26;43.55;101987.22;5008948;28;20141;-56
2021/10/08 05:49:51;;;;;;;36.33;17.90;;;;;;;13.93;42.45;101988.28;5014225;28;20041;-56
2021/10/08 05:52:17;;;;;;;31.50;16.42;;;;;;;14.13;40.79;101977.59;5013731;28;20613;-52
2021/10/08 05:54:43;;;;;;;29.85;16.02;;;;;;;14.60;39.73;101989.25;5025547;28;20136;-56
2021/10/08 05:57:08;;;;;;;26.38;15.98;;;;;;;15.08;38.92;101993.72;5021909;28;20048;-56
2021/10/08 05:59:35;;;;;;;28.73;15.65;;;;;;;15.77;38.42;101977.69;5021183;28;20136;-56
2021/10/08 06:02:02;;;;;;;27.95;15.20;;;;;;;16.48;36.93;101981.47;5025321;28;20042;-54
2021/10/08 06:04:27;;;;;;;37.15;15.68;;;;;;;17.02;35.58;101988.13;4992417;28;20099;-53
2021/10/08 06:06:53;;;;;;;24.65;14.27;;;;;;;17.63;34.84;101983.09;5054680;28;20460;-54
2021/10/08 06:09:19;;;;;;;24.50;13.52;;;;;;;18.05;32.97;101996.81;5026063;28;20049;-54
2021/10/08 06:11:45;;;;;;;20.85;13.13;;;;;;;17.89;32.71;101971.84;5030098;28;20159;-53
2021/10/08 06:14:11;;;;;;;24.10;13.43;;;;;;;17.95;32.73;101990.06;5028479;28;20536;-52
2021/10/08 06:16:37;;;;;;;22.10;12.77;;;;;;;17.93;32.47;101994.53;5027377;28;20046;-54
2021/10/08 06:19:03;;;;;;;25.08;13.20;;;;;;;18.47;32.25;101992.06;5036510;28;20041;-54
2021/10/08 06:21:31;;;;;;;19.35;11.90;;;;;;;18.50;31.41;101986.69;5044656;28;20084;-54
2021/10/08 06:23:57;;;;;;;19.08;12.27;;;;;;;19.16;31.39;101987.25;5027944;28;20037;-54
2021/10/08 06:26:23;;;;;;;16.70;11.00;;;;;;;19.60;29.41;101988.44;5039618;28;20064;-53
2021/10/08 06:28:51;;;;;;;27.80;13.05;;;;;;;19.95;29.65;101987.16;5033596;28;20045;-51
2021/10/08 06:31:17;;;;;;;23.85;12.60;;;;;;;20.22;28.65;101981.72;5046880;28;20052;-51
2021/10/08 06:33:45;;;;;;;18.05;12.30;;;;;;;20.09;28.98;101971.69;5047859;28;20048;-57
2021/10/08 06:36:11;;;;;;;15.63;11.52;;;;;;;20.30;28.92;101981.44;5045275;28;20400;-56
2021/10/08 06:38:38;;;;;;;22.02;12.75;;;;;;;20.72;28.12;101986.88;5039690;28;20045;-59
2021/10/08 06:41:04;;;;;;;22.13;12.85;;;;;;;21.48;26.68;101981.94;5061191;28;20045;-58
2021/10/08 06:43:31;;;;;;;20.55;12.23;;;;;;;21.87;25.99;101989.94;5029240;28;20038;-56
2021/10/08 06:46:10;;;;;;;19.60;13.88;;;;;;;21.79;26.09;101983.25;5011577;28;20052;-57
2021/10/08 06:48:36;;;;;;;20.50;13.25;;;;;;;22.35;25.95;101989.50;5009354;28;20045;-58
2021/10/08 06:51:03;;;;;;;20.20;13.05;;;;;;;23.05;25.22;101993.25;5011737;28;20125;-56
2021/10/08 06:53:29;;;;;;;13.35;10.20;;;;;;;23.28;24.47;101995.63;5033777;28;20049;-59
2021/10/08 06:55:55;;;;;;;15.18;11.65;;;;;;;23.56;24.55;101998.59;5048944;28;20415;-57
2021/10/08 06:58:39;;;;;;;15.63;10.32;;;;;;;23.51;23.52;101995.31;5043468;28;20096;-56
2021/10/08 07:01:05;;;;;;;17.13;10.20;;;;;;;23.28;23.66;101997.41;5024873;28;20049;-55
2021/10/08 07:03:32;;;;;;;16.73;11.25;;;;;;;23.92;23.34;101998.47;5038875;28;20052;-58
2021/10/08 07:05:58;;;;;;;14.15;9.75;;;;;;;24.13;22.29;101999.13;5011485;28;20133;-56
2021/10/08 07:08:24;;;;;;;13.52;10.48;;;;;;;23.76;22.40;101991.41;5008730;28;20054;-57
2021/10/08 07:10:50;;;;;;;16.05;10.55;;;;;;;23.87;22.65;102000.50;5008314;28;20041;-58
2021/10/08 07:13:16;;;;;;;19.13;12.02;;;;;;;24.06;21.86;101987.97;5009460;28;20050;-55
2021/10/08 07:15:41;;;;;;;19.85;11.75;;;;;;;23.95;22.46;102002.78;5009247;28;20037;-63
2021/10/08 07:18:10;;;;;;;16.75;11.05;;;;;;;24.43;21.93;101994.84;5036567;28;20122;-56
2021/10/08 07:20:36;;;;;;;19.25;11.27;;;;;;;24.32;22.38;101994.56;5037780;28;20094;-57
2021/10/08 07:23:02;;;;;;;14.57;9.73;;;;;;;23.66;22.24;101993.66;5029941;28;20041;-57
2021/10/08 07:25:30;;;;;;;12.88;10.48;;;;;;;22.82;23.60;101993.53;5049870;28;20040;-58
2021/10/08 07:27:55;;;;;;;15.98;10.73;;;;;;;22.79;23.64;101999.81;5038966;28;20040;-57
2021/10/08 07:30:21;;;;;;;14.82;10.10;;;;;;;22.44;23.82;101992.66;5034339;28;20045;-59
2021/10/08 07:32:47;;;;;;;15.20;10.70;;;;;;;22.18;23.90;101997.41;5021678;28;20052;-59
2021/10/08 07:35:15;;;;;;;15.00;9.68;;;;;;;21.80;24.25;101995.56;5043763;28;20424;-59
2021/10/08 07:37:41;;;;;;;13.52;9.00;;;;;;;21.44;24.23;102001.53;5025927;28;20100;-65
2021/10/08 07:40:09;;;;;;;15.85;9.05;;;;;;;22.40;23.46;101998.09;5025899;28;20071;-66
2021/10/08 07:42:35;;;;;;;16.30;9.40;;;;;;;23.15;22.66;102008.63;5031693;28;20445;-65
2021/10/08 07:45:06;;;;;;;14.13;9.73;;;;;;;23.43;22.57;102004.59;5033817;28;20048;-65
2021/10/08 07:47:32;;;;;;;58.85;12.43;;;;;;;23.89;22.17;102008.41;5044051;28;20045;-65
2021/10/08 07:49:58;;;;;;;17.88;9.07;;;;;;;23.40;22.18;102002.09;5034711;28;20402;-65
2021/10/08 07:52:24;;;;;;;14.80;8.32;;;;;;;23.06;22.29;102003.78;5046341;28;20048;-64
2021/10/08 07:54:50;;;;;;;13.25;9.82;;;;;;;23.28;21.99;102003.59;5051102;28;20037;-66
2021/10/08 07:57:15;;;;;;;16.67;10.30;;;;;;;22.96;22.19;102007.84;5031085;28;20482;-63
2021/10/08 07:59:41;;;;;;;16.20;10.32;;;;;;;23.04;22.18;101995.03;5022746;28;20052;-68
2021/10/08 08:02:07;;;;;;;12.02;9.45;;;;;;;22.37;22.42;102006.22;5047286;28;21762;-68
2021/10/08 08:04:33;;;;;;;15.00;9.43;;;;;;;21.68;23.23;101996.97;5030576;28;20041;-69
2021/10/08 08:06:59;;;;;;;13.70;8.88;;;;;;;21.79;23.48;102007.06;5030978;28;20037;-69
2021/10/08 08:09:25;;;;;;;16.02;8.27;;;;;;;22.14;23.17;102002.91;5018535;28;20049;-69
2021/10/08 08:11:50;;;;;;;10.23;7.45;;;;;;;22.17;22.88;102005.41;5025562;28;20044;-68
2021/10/08 08:14:16;;;;;;;9.40;6.60;;;;;;;22.13;22.89;101996.75;5032205;28;20099;-70
2021/10/08 08:16:42;;;;;;;11.70;6.55;;;;;;;21.85;23.19;101996.22;5021330;28;20038;-69
2021/10/08 08:19:10;;;;;;;9.73;6.88;;;;;;;21.82;23.24;101993.72;5011073;28;20038;-69
2021/10/08 08:21:36;;;;;;;8.18;5.90;;;;;;;22.07;22.95;101997.03;5012037;28;20466;-69
2021/10/08 08:24:03;;;;;;;9.07;5.72;;;;;;;22.38;22.50;102001.78;5010633;28;20041;-68
2021/10/08 08:26:28;;;;;;;11.43;5.88;;;;;;;22.76;22.15;102003.50;5016079;28;20052;-69
2021/10/08 08:28:54;;;;;;;10.57;5.18;;;;;;;23.08;21.55;102003.72;5011904;28;20037;-68
2021/10/08 08:31:20;;;;;;;7.45;4.65;;;;;;;23.21;21.37;102012.78;5011932;28;20528;-69
2021/10/08 08:33:45;;;;;;;11.07;5.78;;;;;;;22.89;21.48;101998.44;5026904;28;20096;-68
2021/10/08 08:36:11;;;;;;;6.72;5.97;;;;;;;22.90;21.19;102002.81;5023244;28;20045;-70
2021/10/08 08:38:37;;;;;;;10.25;5.32;;;;;;;23.26;20.79;102004.59;5021610;28;20052;-68
2021/10/08 08:41:02;;;;;;;5.97;4.20;;;;;;;23.56;20.28;101995.09;5027021;28;20132;-68
2021/10/08 08:43:29;;;;;;;5.82;4.43;;;;;;;23.88;19.77;102007.56;5027139;28;20045;-69
2021/10/08 08:45:55;;;;;;;6.93;4.75;;;;;;;23.83;19.83;101985.69;5031599;28;20044;-69
2021/10/08 08:48:22;;;;;;;6.00;4.28;;;;;;;24.61;18.98;101997.41;5029858;28;20156;-66
2021/10/08 08:50:48;;;;;;;4.97;3.80;;;;;;;24.80;18.87;101998.09;5013506;28;20508;-69
2021/10/08 08:53:16;;;;;;;8.13;3.80;;;;;;;25.95;18.28;102001.91;5022329;28;20103;-68
2021/10/08 08:55:42;;;;;;;5.53;3.63;;;;;;;25.95;17.82;102001.03;5011471;28;20041;-69
2021/10/08 08:58:08;;;;;;;7.15;4.22;;;;;;;25.56;17.85;101997.19;5011457;28;20053;-67
2021/10/08 09:00:34;;;;;;;7.65;4.00;;;;;;;25.56;18.37;101989.19;5026907;28;20124;-68
2021/10/08 09:03:05;;;;;;;6.45;3.90;;;;;;;26.05;17.74;101999.50;5030450;28;20045;-68
2021/10/08 09:05:33;;;;;;;5.38;3.58;;;;;;;25.43;18.14;101997.97;5031135;28;20095;-69
2021/10/08 09:08:08;;;;;;;5.47;4.22;;;;;;;25.48;17.99;101993.22;5030893;28;20044;-69
2021/10/08 09:10:39;;;;;;;4.40;4.00;;;;;;;26.39;17.79;102000.94;5029766;28;20590;-68
2021/10/08 09:13:05;;;;;;;4.97;3.50;;;;;;;26.30;17.47;101993.50;5025300;28;20072;-68
2021/10/08 09:15:49;;;;;;;6.10;3.53;;;;;;;25.96;17.39;101992.91;5009570;28;20045;-68
2021/10/08 09:18:19;;;;;;;6.38;3.70;;;;;;;26.05;17.96;101978.19;5010908;28;20048;-68
2021/10/08 09:21:05;;;;;;;8.05;3.20;;;;;;;26.27;17.26;101986.59;5009651;28;20087;-68
2021/10/08 09:23:36;;;;;;;9.45;4.97;;;;;;;26.77;16.95;101985.09;5018814;28;20049;-68
2021/10/08 09:26:05;;;;;;;6.70;3.72;;;;;;;26.97;16.96;101987.34;5058102;28;20062;-68
2021/10/08 09:28:31;;;;;;;6.97;3.95;;;;;;;28.33;16.40;101986.81;5009370;28;20041;-67
2021/10/08 09:30:57;;;;;;;8.82;4.30;;;;;;;28.41;15.85;101989.81;5010642;28;20119;-68
2021/10/08 09:33:26;;;;;;;7.47;3.78;;;;;;;28.09;16.23;101986.75;5010483;28;20538;-69
2021/10/08 09:35:55;;;;;;;7.78;4.43;;;;;;;28.41;16.05;101979.13;5010018;28;20042;-68
2021/10/08 09:38:22;;;;;;;4.85;3.53;;;;;;;29.16;15.86;101971.72;5010077;28;20420;-68
2021/10/08 09:41:01;;;;;;;4.95;4.20;;;;;;;29.83;15.17;101965.53;5010012;28;20124;-69
2021/10/08 09:43:29;;;;;;;5.93;3.92;;;;;;;30.24;14.71;101975.69;5009293;28;20437;-69
2021/10/08 09:45:59;;;;;;;7.78;4.47;;;;;;;30.23;14.49;101965.94;5023201;28;20041;-69
2021/10/08 09:48:45;;;;;;;5.55;3.80;;;;;;;30.70;14.22;101961.22;5029940;28;20053;-70
2021/10/08 09:51:16;;;;;;;5.63;3.42;;;;;;;30.97;14.09;101958.91;5029558;28;20045;-69
2021/10/08 09:53:48;;;;;;;5.05;3.53;;;;;;;31.60;13.78;101965.19;5029982;28;20392;-69
2021/10/08 09:56:39;;;;;;;15.00;7.40;;;;;;;31.92;13.53;101965.06;5014453;28;20038;-68
2021/10/08 09:59:07;;;;;;;16.08;6.82;;;;;;;31.54;14.09;101958.47;5013695;28;20038;-69
2021/10/08 10:01:35;;;;;;;10.45;5.38;;;;;;;31.92;13.92;101959.69;5011776;28;20045;-69
2021/10/08 10:04:03;;;;;;;7.25;4.88;;;;;;;31.93;13.70;101954.16;5028612;28;20121;-68
2021/10/08 10:06:29;;;;;;;10.38;5.75;;;;;;;31.50;14.17;101942.75;5029147;28;20045;-69
2021/10/08 10:08:55;;;;;;;7.20;4.85;;;;;;;31.62;14.32;101952.44;5028348;28;20037;-70
2021/10/08 10:11:23;;;;;;;8.82;4.97;;;;;;;32.11;13.57;101946.31;5029471;28;20509;-70
2021/10/08 10:13:49;;;;;;;;;;;;;;;32.43;13.65;101947.97;5029826;28;20116;-69
2021/10/08 10:16:16;;;;;;;12.93;6.60;;;;;;;32.62;13.72;101939.88;5016759;28;19921;-69
2021/10/08 10:18:44;;;;;;;8.38;5.63;;;;;;;32.32;13.12;101949.78;5009961;28;20041;-68
2021/10/08 10:21:10;;;;;;;10.27;5.45;;;;;;;32.04;13.43;101923.59;5024854;28;20131;-69
2021/10/08 10:23:37;;;;;;;6.68;5.20;;;;;;;32.20;13.17;101940.09;5009840;28;20535;-68
2021/10/08 10:26:03;;;;;;;9.70;5.30;;;;;;;31.47;13.89;101934.94;5016165;28;20065;-67
2021/10/08 10:28:28;;;;;;;7.10;5.75;;;;;;;31.44;13.59;101943.28;5024465;28;20095;-69
2021/10/08 10:30:54;;;;;;;5.47;4.70;;;;;;;31.81;13.34;101935.56;5008497;28;20136;-68
2021/10/08 10:33:26;;;;;;;10.10;5.05;;;;;;;32.14;13.42;101927.19;5008316;28;20042;-69
2021/10/08 10:35:54;;;;;;;8.68;5.72;;;;;;;32.09;13.14;101926.72;5016626;28;20045;-69
2021/10/08 10:38:39;;;;;;;6.68;5.63;;;;;;;32.21;13.60;101931.06;5029134;28;20044;-70
2021/10/08 10:41:08;;;;;;;10.60;6.35;;;;;;;32.57;13.24;101924.16;5029026;28;20038;-67
2021/10/08 10:43:40;;;;;;;9.55;5.25;;;;;;;32.71;13.44;101928.31;5028881;28;20037;-67
2021/10/08 10:51:58;;;;;;;11.05;5.30;;;;;;;33.24;13.03;101915.22;5013689;28;20037;-69
2021/10/08 10:54:41;;;;;;;8.30;5.35;;;;;;;32.72;12.90;101914.69;5013306;28;20571;-68
2021/10/08 10:57:11;;;;;;;9.52;5.65;;;;;;;32.29;13.48;101919.59;5014302;28;20042;-68
2021/10/08 10:59:41;;;;;;;8.15;5.95;;;;;;;31.90;13.58;101908.69;5028203;28;20042;-69
2021/10/08 11:04:37;;;;;;;12.68;8.73;;;;;;;30.60;14.15;101918.16;5028737;28;20172;-71
2021/10/08 11:07:05;;;;;;;9.98;6.05;;;;;;;30.83;14.05;101910.00;5024179;28;20120;-68
2021/10/08 11:09:31;;;;;;;10.32;6.05;;;;;;;31.31;13.92;101900.44;5032746;28;20485;-67
2021/10/08 11:12:32;;;;;;;6.47;5.80;;;;;;;31.87;13.25;101900.91;5032776;28;20461;-68
2021/10/08 11:17:55;;;;;;;8.27;5.40;;;;;;;31.36;13.23;101894.66;5030877;28;20114;-69
2021/10/08 11:20:38;;;;;;;8.13;5.32;;;;;;;30.85;13.99;101890.06;5032529;28;20540;-66
2021/10/08 11:23:06;;;;;;;7.27;5.50;;;;;;;29.56;14.12;101889.09;5033065;28;20067;-69
2021/10/08 11:25:34;;;;;;;12.23;5.47;;;;;;;28.26;15.44;101867.84;5015063;28;20041;-70
2021/10/08 11:28:00;;;;;;;10.57;6.13;;;;;;;27.23;16.48;101868.91;5017785;28;20510;-68
2021/10/08 11:30:28;;;;;;;12.27;5.13;;;;;;;26.33;17.19;101875.94;5012842;28;20061;-68